Time;durP1;ratioP1;P1;durP2;ratioP2;P2;SDS_P1;SDS_P2;PMS_P1;PMS_P2;Temp;Humidity;BMP_temperature;BMP_pressure;BME280_temperature;BME280_humidity;BME280_pressure;Samples;Min_cycle;Max_cycle;Signal;HPM_P1;HPM_P2
2022/04/07 00:00:50;;;;;;;6.18;4.70;;;8.30;97.50;;;;;;5042273;28;20056;-69
2022/04/07 00:03:16;;;;;;;5.10;3.70;;;8.20;97.70;;;;;;5051349;28;20052;-69
2022/04/07 00:05:41;;;;;;;7.90;4.25;;;8.20;98.00;;;;;;5053218;28;20037;-69
2022/04/07 00:08:07;;;;;;;6.00;4.70;;;8.30;98.00;;;;;;5051584;28;20052;-69
2022/04/07 00:10:34;;;;;;;5.72;4.32;;;8.40;97.80;;;;;;5062425;28;20119;-69
2022/04/07 00:13:00;;;;;;;5.15;3.08;;;8.50;97.70;;;;;;5052410;28;20040;-69
2022/04/07 00:15:26;;;;;;;3.22;2.78;;;8.40;97.40;;;;;;5056430;28;20048;-69
2022/04/07 00:17:52;;;;;;;3.35;2.42;;;8.30;97.50;;;;;;5050113;28;20475;-69
2022/04/07 00:20:18;;;;;;;3.35;2.75;;;8.20;97.40;;;;;;5051747;28;20055;-69
2022/04/07 00:22:44;;;;;;;3.03;2.70;;;8.10;97.30;;;;;;5047478;28;20149;-69
2022/04/07 00:25:10;;;;;;;2.72;2.40;;;8.10;97.40;;;;;;5042394;28;20033;-69
2022/04/07 00:27:36;;;;;;;3.20;2.58;;;7.90;97.60;;;;;;5050182;28;20075;-69
2022/04/07 00:30:03;;;;;;;4.43;2.72;;;7.80;97.80;;;;;;5056733;28;20040;-68
2022/04/07 00:32:29;;;;;;;6.25;2.90;;;7.70;98.20;;;;;;5055834;28;20044;-69
2022/04/07 00:34:56;;;;;;;2.60;2.40;;;7.60;98.20;;;;;;5056414;28;20112;-69
2022/04/07 00:37:23;;;;;;;2.83;2.42;;;7.70;98.40;;;;;;5054267;28;20306;-69
2022/04/07 00:39:49;;;;;;;2.80;2.33;;;7.80;98.40;;;;;;5054993;28;20029;-69
2022/04/07 00:42:16;;;;;;;4.47;2.63;;;7.80;98.50;;;;;;5053827;28;20080;-69
2022/04/07 00:44:43;;;;;;;4.05;3.30;;;7.70;98.30;;;;;;5051111;28;20040;-69
2022/04/07 00:47:09;;;;;;;3.38;2.75;;;7.80;98.40;;;;;;5052654;28;20199;-69
2022/04/07 00:49:35;;;;;;;2.80;2.30;;;7.80;98.30;;;;;;5054862;28;20033;-69
2022/04/07 00:52:01;;;;;;;3.17;2.40;;;7.80;97.80;;;;;;5054506;28;20068;-69
2022/04/07 00:54:28;;;;;;;4.55;2.40;;;7.70;97.90;;;;;;5058269;28;20060;-69
2022/04/07 00:56:55;;;;;;;4.32;2.78;;;7.70;98.30;;;;;;5056485;28;20098;-69
2022/04/07 00:59:22;;;;;;;5.35;2.60;;;7.70;98.30;;;;;;5057033;28;20072;-69
2022/04/07 01:01:48;;;;;;;3.35;2.72;;;7.70;98.30;;;;;;5055615;28;20057;-69
2022/04/07 01:04:15;;;;;;;7.60;3.72;;;7.70;98.30;;;;;;5052188;28;20568;-69
2022/04/07 01:06:44;;;;;;;6.07;3.60;;;7.90;98.50;;;;;;5053953;28;20071;-69
2022/04/07 01:09:10;;;;;;;4.00;3.15;;;8.00;98.10;;;;;;5050362;28;20514;-69
2022/04/07 01:11:40;;;;;;;4.22;2.38;;;8.00;98.10;;;;;;5052529;28;20494;-69
2022/04/07 01:14:06;;;;;;;3.40;3.10;;;8.00;97.90;;;;;;5052856;28;20079;-69
2022/04/07 01:16:32;;;;;;;3.95;2.75;;;7.90;98.00;;;;;;5057656;28;20040;-68
2022/04/07 01:18:59;;;;;;;5.75;2.45;;;7.70;98.30;;;;;;5054046;28;20033;-68
2022/04/07 01:21:30;;;;;;;3.03;2.00;;;7.60;98.20;;;;;;5049606;28;22690;-69
2022/04/07 01:24:07;;;;;;;2.60;2.40;;;7.50;97.90;;;;;;5054061;28;20064;-68
2022/04/07 01:26:44;;;;;;;4.60;2.80;;;7.40;98.10;;;;;;5057158;28;20094;-70
2022/04/07 01:29:11;;;;;;;2.78;2.40;;;7.50;98.40;;;;;;5047957;28;20324;-69
2022/04/07 01:31:38;;;;;;;5.00;3.40;;;7.50;98.40;;;;;;5054734;28;20127;-71
2022/04/07 01:34:15;;;;;;;3.72;3.25;;;7.70;98.50;;;;;;5054897;28;20151;-70
2022/04/07 01:36:44;;;;;;;4.53;2.97;;;7.80;98.30;;;;;;5056449;28;20036;-70
2022/04/07 01:39:13;;;;;;;4.03;3.42;;;7.60;98.20;;;;;;5052758;28;20526;-69
2022/04/07 01:41:40;;;;;;;4.78;3.78;;;7.40;98.90;;;;;;5058140;28;20052;-68
2022/04/07 01:44:07;;;;;;;6.35;3.45;;;7.50;99.00;;;;;;5056963;28;20055;-70
2022/04/07 01:46:34;;;;;;;4.78;2.80;;;7.40;98.60;;;;;;5053370;28;20047;-70
2022/04/07 01:49:01;;;;;;;3.47;2.95;;;7.30;98.50;;;;;;5056084;28;20037;-69
2022/04/07 01:51:28;;;;;;;3.75;3.35;;;7.20;98.00;;;;;;5050782;28;20064;-70
2022/04/07 01:53:55;;;;;;;5.90;2.97;;;7.00;98.00;;;;;;5050320;28;20113;-70
2022/04/07 01:56:22;;;;;;;3.78;3.10;;;7.00;98.70;;;;;;5052658;28;20193;-69
2022/04/07 01:58:48;;;;;;;3.40;3.10;;;7.00;99.00;;;;;;5054073;28;20043;-70
2022/04/07 02:01:17;;;;;;;4.57;4.07;;;7.00;98.90;;;;;;5053625;28;20040;-69
2022/04/07 02:03:45;;;;;;;5.25;3.40;;;7.10;98.90;;;;;;5051647;28;20040;-69
2022/04/07 02:06:11;;;;;;;3.60;2.75;;;7.20;99.00;;;;;;5051354;28;20040;-69
2022/04/07 02:08:37;;;;;;;2.70;2.42;;;7.20;98.50;;;;;;5050667;28;20588;-69
2022/04/07 02:11:03;;;;;;;4.00;2.70;;;7.00;98.90;;;;;;5056859;28;20498;-70
2022/04/07 02:13:31;;;;;;;3.25;2.83;;;7.00;98.90;;;;;;5053988;28;20050;-68
2022/04/07 02:15:57;;;;;;;2.83;2.55;;;6.90;98.60;;;;;;5053134;28;20575;-69
2022/04/07 02:18:23;;;;;;;3.95;3.35;;;6.80;99.00;;;;;;5053550;28;20124;-69
2022/04/07 02:20:48;;;;;;;4.13;3.63;;;6.70;99.30;;;;;;5059093;28;20045;-69
2022/04/07 02:23:14;;;;;;;3.40;2.88;;;6.70;99.50;;;;;;5052482;28;20067;-70
2022/04/07 02:25:39;;;;;;;3.78;3.05;;;6.70;99.50;;;;;;5050495;28;20110;-70
2022/04/07 02:28:05;;;;;;;3.85;3.38;;;6.80;99.30;;;;;;5054463;28;20408;-70
2022/04/07 02:30:31;;;;;;;4.53;3.70;;;6.90;99.40;;;;;;5049803;28;20036;-69
2022/04/07 02:32:56;;;;;;;5.53;3.80;;;7.00;99.20;;;;;;5050872;28;20479;-70
2022/04/07 02:35:22;;;;;;;6.00;4.25;;;7.00;99.10;;;;;;5052426;28;20037;-69
2022/04/07 02:37:48;;;;;;;6.65;4.25;;;7.20;99.20;;;;;;5048409;28;20040;-69
2022/04/07 02:40:14;;;;;;;6.03;4.00;;;7.20;99.00;;;;;;5050991;28;20068;-70
2022/04/07 02:42:40;;;;;;;5.72;2.75;;;7.20;98.90;;;;;;5053291;28;20138;-69
2022/04/07 02:45:06;;;;;;;3.30;2.83;;;7.00;98.30;;;;;;5051315;28;20117;-70
2022/04/07 02:47:38;;;;;;;3.10;2.35;;;6.80;98.50;;;;;;5050840;28;20041;-69
2022/04/07 02:50:05;;;;;;;3.65;2.80;;;6.70;98.60;;;;;;5054867;28;20110;-70
2022/04/07 02:52:30;;;;;;;4.13;2.67;;;6.60;99.00;;;;;;5057383;28;20131;-69
2022/04/07 02:54:56;;;;;;;5.10;3.05;;;6.50;99.20;;;;;;5051461;28;20553;-69
2022/04/07 02:57:23;;;;;;;6.10;3.13;;;6.60;99.30;;;;;;5058872;28;20783;-70
2022/04/07 02:59:48;;;;;;;5.68;3.25;;;6.60;99.20;;;;;;5049447;28;20390;-70
2022/04/07 03:02:14;;;;;;;4.55;3.20;;;6.60;99.60;;;;;;5053040;28;20165;-70
2022/04/07 03:04:40;;;;;;;3.90;3.33;;;6.60;99.60;;;;;;5054686;28;20132;-70
2022/04/07 03:07:05;;;;;;;3.88;3.45;;;6.60;99.80;;;;;;5050963;28;20060;-70
2022/04/07 03:09:31;;;;;;;4.97;3.50;;;6.60;99.80;;;;;;5047643;28;20397;-70
2022/04/07 03:11:56;;;;;;;7.65;3.30;;;6.60;99.50;;;;;;5044515;28;20104;-70
2022/04/07 03:14:26;;;;;;;4.68;3.45;;;6.60;99.60;;;;;;5049871;28;20125;-70
2022/04/07 03:16:52;;;;;;;6.43;4.68;;;6.70;99.40;;;;;;5048335;28;20028;-70
2022/04/07 03:19:18;;;;;;;3.58;3.28;;;6.80;99.30;;;;;;5052369;28;20052;-70
2022/04/07 03:21:44;;;;;;;6.05;3.78;;;6.60;99.50;;;;;;5051026;28;20057;-69
2022/04/07 03:24:10;;;;;;;4.50;3.75;;;6.50;99.90;;;;;;5052590;28;20116;-70
2022/04/07 03:26:37;;;;;;;6.35;3.53;;;6.60;99.90;;;;;;5048888;28;20114;-70
2022/04/07 03:29:02;;;;;;;4.93;3.55;;;6.60;99.90;;;;;;5047178;28;20118;-70
2022/04/07 03:31:28;;;;;;;4.35;3.25;;;6.70;99.90;;;;;;5052988;28;20490;-69
2022/04/07 03:33:53;;;;;;;3.17;2.63;;;6.70;99.90;;;;;;5048318;28;20044;-70
2022/04/07 03:36:19;;;;;;;2.63;1.98;;;6.70;99.30;;;;;;5052849;28;20047;-70
2022/04/07 03:38:45;;;;;;;3.33;2.50;;;6.50;98.90;;;;;;5055808;28;20102;-70
2022/04/07 03:41:11;;;;;;;3.03;2.53;;;6.40;99.40;;;;;;5052242;28;20047;-70
2022/04/07 03:43:37;;;;;;;3.47;2.85;;;6.40;99.60;;;;;;5051731;28;20045;-70
2022/04/07 03:46:02;;;;;;;2.97;2.22;;;6.50;99.60;;;;;;5045232;28;20045;-70
2022/04/07 03:48:28;;;;;;;3.72;2.28;;;6.40;99.50;;;;;;5054391;28;20033;-70
2022/04/07 03:50:56;;;;;;;2.80;2.30;;;6.30;99.90;;;;;;5058185;28;20039;-70
2022/04/07 03:53:22;;;;;;;3.30;2.38;;;6.40;99.80;;;;;;5050812;28;20067;-70
2022/04/07 03:55:47;;;;;;;2.50;2.28;;;6.30;99.70;;;;;;5058736;28;20412;-69
2022/04/07 03:58:13;;;;;;;2.78;2.33;;;6.20;99.90;;;;;;5046449;28;20497;-70
2022/04/07 04:00:38;;;;;;;2.70;2.22;;;6.20;99.90;;;;;;5047813;28;20037;-70
2022/04/07 04:03:04;;;;;;;3.05;2.42;;;6.10;99.90;;;;;;5048822;28;20739;-70
2022/04/07 04:05:30;;;;;;;6.00;2.70;;;6.10;99.90;;;;;;5050126;28;20044;-69
2022/04/07 04:07:56;;;;;;;4.55;2.70;;;6.20;99.90;;;;;;5051899;28;20041;-69
2022/04/07 04:10:23;;;;;;;4.28;2.72;;;6.30;99.90;;;;;;5047777;28;20040;-70
2022/04/07 04:12:49;;;;;;;2.95;2.53;;;6.50;99.90;;;;;;5058277;28;20642;-70
2022/04/07 04:15:14;;;;;;;2.22;2.00;;;6.50;99.90;;;;;;5051486;28;20037;-70
2022/04/07 04:17:41;;;;;;;2.35;2.15;;;6.40;99.90;;;;;;5053586;28;20052;-70
2022/04/07 04:20:07;;;;;;;4.30;2.03;;;6.20;99.90;;;;;;5048347;28;20119;-69
2022/04/07 04:22:33;;;;;;;2.65;2.22;;;6.10;99.90;;;;;;5057374;28;20049;-70
2022/04/07 04:25:00;;;;;;;3.45;2.42;;;6.00;99.90;;;;;;5055206;28;20712;-69
2022/04/07 04:27:25;;;;;;;1.88;1.77;;;6.00;99.90;;;;;;5048394;28;20060;-70
2022/04/07 04:29:51;;;;;;;3.17;2.83;;;6.00;99.90;;;;;;5048886;28;20025;-70
2022/04/07 04:32:16;;;;;;;3.45;2.92;;;6.10;99.90;;;;;;5043805;28;20060;-69
2022/04/07 04:34:42;;;;;;;4.28;3.30;;;6.20;99.90;;;;;;5049997;28;20103;-70
2022/04/07 04:37:08;;;;;;;4.75;3.80;;;6.40;99.90;;;;;;5044416;28;20119;-70
2022/04/07 04:39:34;;;;;;;4.03;3.42;;;6.50;99.90;;;;;;5051866;28;20222;-70
2022/04/07 04:41:59;;;;;;;4.30;3.15;;;6.60;99.90;;;;;;5050271;28;20045;-70
2022/04/07 04:44:25;;;;;;;6.40;3.65;;;6.60;99.90;;;;;;5049884;28;20048;-71
2022/04/07 04:46:51;;;;;;;3.92;3.25;;;6.60;99.90;;;;;;5052376;28;20087;-70
2022/04/07 04:49:16;;;;;;;5.80;2.85;;;6.60;99.90;;;;;;5049883;28;20482;-70
2022/04/07 04:51:42;;;;;;;6.60;2.83;;;6.60;99.90;;;;;;5055227;28;20037;-69
2022/04/07 04:54:07;;;;;;;3.58;2.33;;;6.60;99.90;;;;;;5048556;28;20037;-70
2022/04/07 04:56:33;;;;;;;5.20;2.72;;;6.60;99.90;;;;;;5055419;28;20044;-70
2022/04/07 04:58:59;;;;;;;3.22;2.40;;;6.60;99.90;;;;;;5058340;28;20877;-70
2022/04/07 05:01:25;;;;;;;3.20;2.10;;;6.60;99.90;;;;;;5055108;28;20052;-70
2022/04/07 05:03:50;;;;;;;4.03;1.67;;;6.70;99.90;;;;;;5049527;28;20072;-69
2022/04/07 05:06:16;;;;;;;5.10;2.17;;;6.80;99.90;;;;;;5050117;28;20154;-69
2022/04/07 05:08:42;;;;;;;5.20;2.90;;;6.80;99.90;;;;;;5048504;28;20029;-70
2022/04/07 05:11:07;;;;;;;2.13;1.92;;;7.00;99.90;;;;;;5055420;28;20051;-70
2022/04/07 05:13:33;;;;;;;8.88;1.67;;;7.00;99.90;;;;;;5041354;28;20040;-69
2022/04/07 05:15:59;;;;;;;4.40;1.92;;;6.80;99.90;;;;;;5051295;28;20514;-69
2022/04/07 05:18:25;;;;;;;3.80;2.80;;;6.80;99.90;;;;;;5054590;28;20025;-69
2022/04/07 05:20:50;;;;;;;2.95;2.45;;;6.70;99.90;;;;;;5062279;28;20082;-69
2022/04/07 05:23:16;;;;;;;4.07;2.45;;;6.60;99.90;;;;;;5050580;28;20052;-70
2022/04/07 05:25:42;;;;;;;2.58;2.03;;;6.60;99.90;;;;;;5060919;28;20119;-69
2022/04/07 05:28:07;;;;;;;4.93;2.35;;;6.60;99.90;;;;;;5051693;28;20059;-69
2022/04/07 05:30:33;;;;;;;3.95;2.53;;;6.70;99.90;;;;;;5056720;28;20048;-70
2022/04/07 05:32:59;;;;;;;4.07;2.35;;;6.80;99.90;;;;;;5058175;28;20040;-69
2022/04/07 05:35:28;;;;;;;2.97;2.67;;;7.00;99.90;;;;;;5052925;28;20107;-69
2022/04/07 05:37:58;;;;;;;3.45;2.80;;;7.10;99.90;;;;;;5054703;28;20174;-69
2022/04/07 05:40:24;;;;;;;2.83;2.47;;;7.10;99.90;;;;;;5046695;28;20177;-69
2022/04/07 05:42:49;;;;;;;2.92;2.38;;;7.20;99.90;;;;;;5057330;28;20056;-69
2022/04/07 05:45:15;;;;;;;3.67;2.63;;;7.20;99.90;;;;;;5057375;28;20060;-69
2022/04/07 05:47:41;;;;;;;3.58;2.90;;;7.40;99.90;;;;;;5059980;28;20112;-69
2022/04/07 05:50:08;;;;;;;6.97;3.50;;;7.60;99.90;;;;;;5042381;28;20389;-69
2022/04/07 05:52:33;;;;;;;3.45;2.55;;;7.80;99.90;;;;;;5058208;28;20048;-70
2022/04/07 05:54:59;;;;;;;2.88;2.53;;;7.90;99.90;;;;;;5053004;28;20029;-69
2022/04/07 05:57:30;;;;;;;5.25;2.65;;;8.00;99.90;;;;;;5057629;28;20673;-70
2022/04/07 06:00:04;;;;;;;4.28;2.70;;;8.10;99.90;;;;;;5050481;28;20086;-69
2022/04/07 06:02:30;;;;;;;3.15;2.65;;;8.20;99.90;;;;;;5058075;28;20144;-69
2022/04/07 06:04:56;;;;;;;5.28;3.03;;;8.30;99.90;;;;;;5055855;28;20032;-69
2022/04/07 06:07:22;;;;;;;6.10;3.10;;;8.50;99.90;;;;;;5055450;28;20041;-70
2022/04/07 06:09:48;;;;;;;4.72;2.95;;;8.70;99.90;;;;;;5054255;28;20072;-69
2022/04/07 06:12:13;;;;;;;4.57;3.25;;;8.90;99.90;;;;;;5054325;28;20119;-70
2022/04/07 06:14:39;;;;;;;4.57;3.17;;;9.10;99.90;;;;;;5052972;28;20177;-70
2022/04/07 06:17:05;;;;;;;3.83;2.55;;;9.30;99.90;;;;;;5060675;28;20052;-70
2022/04/07 06:19:30;;;;;;;5.40;2.90;;;9.50;99.90;;;;;;5054418;28;20035;-70
2022/04/07 06:21:56;;;;;;;5.30;3.10;;;9.60;99.90;;;;;;5052817;28;20056;-70
2022/04/07 06:24:22;;;;;;;3.67;3.38;;;9.70;99.90;;;;;;5056181;28;20401;-69
2022/04/07 06:26:49;;;;;;;3.90;3.08;;;9.80;99.90;;;;;;5049125;28;20029;-69
2022/04/07 06:29:15;;;;;;;6.75;2.92;;;9.80;99.90;;;;;;5052889;28;20041;-70
2022/04/07 06:31:41;;;;;;;4.63;3.08;;;9.80;99.90;;;;;;5054717;28;20041;-70
2022/04/07 06:34:06;;;;;;;5.18;2.90;;;9.90;99.90;;;;;;5059283;28;20047;-69
2022/04/07 06:36:32;;;;;;;5.03;3.47;;;10.00;99.90;;;;;;5068918;28;20036;-70
2022/04/07 06:38:58;;;;;;;4.70;3.10;;;10.10;99.90;;;;;;5054640;28;20090;-70
2022/04/07 06:41:23;;;;;;;5.07;3.33;;;10.20;99.90;;;;;;5054040;28;20049;-70
2022/04/07 06:43:49;;;;;;;3.25;2.33;;;10.30;99.90;;;;;;5054561;28;20047;-69
2022/04/07 06:46:15;;;;;;;2.90;2.67;;;10.40;99.90;;;;;;5054375;28;20045;-70
2022/04/07 06:48:43;;;;;;;3.33;2.97;;;10.50;99.90;;;;;;5053076;28;20047;-70
2022/04/07 06:51:09;;;;;;;7.68;3.20;;;10.60;99.90;;;;;;5054821;28;20438;-70
2022/04/07 06:53:35;;;;;;;3.45;2.50;;;10.60;99.60;;;;;;5056000;28;20098;-70
2022/04/07 06:56:01;;;;;;;4.63;2.65;;;10.70;99.10;;;;;;5059893;28;20032;-70
2022/04/07 06:58:26;;;;;;;4.97;2.63;;;10.80;99.30;;;;;;5056469;28;20236;-70
2022/04/07 07:00:52;;;;;;;4.78;2.63;;;10.90;99.30;;;;;;5053904;28;20021;-70
2022/04/07 07:03:18;;;;;;;2.97;2.60;;;11.00;99.10;;;;;;5047140;28;20059;-69
2022/04/07 07:05:44;;;;;;;3.08;2.70;;;11.10;98.60;;;;;;5053727;28;20036;-70
2022/04/07 07:08:17;;;;;;;3.40;3.10;;;11.30;98.30;;;;;;5056750;28;20032;-70
2022/04/07 07:10:48;;;;;;;4.53;2.83;;;11.30;98.00;;;;;;5046821;28;20055;-70
2022/04/07 07:13:16;;;;;;;5.32;2.83;;;11.50;97.70;;;;;;5050209;28;20087;-69
2022/04/07 07:15:43;;;;;;;3.72;2.90;;;11.50;97.40;;;;;;5048417;28;20029;-69
2022/04/07 07:18:08;;;;;;;8.75;3.42;;;11.60;97.30;;;;;;5049040;28;20522;-70
2022/04/07 07:20:34;;;;;;;5.25;3.22;;;11.70;97.30;;;;;;5053645;28;20092;-70
2022/04/07 07:23:00;;;;;;;3.47;2.83;;;11.70;97.20;;;;;;5054494;28;20789;-70
2022/04/07 07:25:26;;;;;;;6.93;2.60;;;11.80;96.60;;;;;;5056365;28;20106;-70
2022/04/07 07:27:51;;;;;;;4.88;3.00;;;11.80;96.40;;;;;;5044149;28;20036;-70
2022/04/07 07:30:18;;;;;;;3.67;2.75;;;11.80;96.40;;;;;;5047729;28;20044;-69
2022/04/07 07:32:46;;;;;;;5.93;2.83;;;11.80;95.90;;;;;;5059323;28;20048;-70
2022/04/07 07:35:12;;;;;;;3.42;2.95;;;11.90;96.60;;;;;;5051079;28;20085;-70
2022/04/07 07:37:47;;;;;;;4.65;2.67;;;11.80;95.60;;;;;;5044930;28;20669;-70
2022/04/07 07:40:13;;;;;;;5.05;3.08;;;11.80;95.70;;;;;;5053843;28;20035;-70
2022/04/07 07:42:40;;;;;;;3.40;2.78;;;11.80;96.00;;;;;;5048357;28;20505;-70
2022/04/07 07:45:06;;;;;;;3.78;3.20;;;11.80;95.90;;;;;;5049664;28;20124;-70
2022/04/07 07:47:33;;;;;;;3.13;2.85;;;11.80;95.80;;;;;;5051964;28;20114;-70
2022/04/07 07:49:59;;;;;;;3.50;2.60;;;11.90;95.80;;;;;;5055930;28;20431;-69
2022/04/07 07:52:25;;;;;;;5.63;2.95;;;11.90;95.70;;;;;;5060073;28;20032;-70
2022/04/07 07:54:50;;;;;;;3.55;2.90;;;12.00;95.60;;;;;;5047722;28;20044;-70
2022/04/07 07:57:18;;;;;;;4.32;3.03;;;12.00;95.70;;;;;;5050147;28;20068;-69
2022/04/07 07:59:44;;;;;;;5.38;2.92;;;12.00;95.60;;;;;;5051159;28;20033;-70
2022/04/07 08:02:09;;;;;;;4.35;3.22;;;12.10;95.60;;;;;;5054543;28;20491;-69
2022/04/07 08:04:35;;;;;;;3.03;2.72;;;12.10;95.10;;;;;;5054835;28;20025;-69
2022/04/07 08:07:00;;;;;;;6.75;3.00;;;12.20;94.90;;;;;;5057167;28;20049;-69
2022/04/07 08:09:26;;;;;;;4.05;3.17;;;12.10;95.10;;;;;;5056055;28;20036;-69
2022/04/07 08:11:52;;;;;;;4.32;2.78;;;12.20;94.90;;;;;;5048896;28;20111;-70
2022/04/07 08:14:18;;;;;;;3.28;2.97;;;12.20;94.80;;;;;;5050894;28;20141;-69
2022/04/07 08:16:43;;;;;;;8.00;6.05;;;12.30;95.20;;;;;;5045226;28;20135;-69
2022/04/07 08:19:09;;;;;;;5.35;3.90;;;12.40;95.40;;;;;;5046202;28;20041;-70
2022/04/07 08:21:35;;;;;;;12.23;7.15;;;12.40;95.20;;;;;;5053494;28;20498;-69
2022/04/07 08:24:00;;;;;;;4.68;3.22;;;12.40;95.10;;;;;;5053818;28;21182;-70
2022/04/07 08:26:26;;;;;;;3.67;3.15;;;12.40;94.50;;;;;;5051820;28;20039;-69
2022/04/07 08:28:52;;;;;;;4.05;3.22;;;12.40;94.50;;;;;;5050509;28;20033;-70
2022/04/07 08:31:18;;;;;;;3.92;3.40;;;12.50;94.30;;;;;;5053889;28;20044;-69
2022/04/07 08:33:44;;;;;;;2.83;2.63;;;12.60;94.10;;;;;;5060926;28;20520;-69
2022/04/07 08:36:09;;;;;;;4.80;3.20;;;12.70;94.10;;;;;;5056974;28;20028;-69
2022/04/07 08:38:35;;;;;;;8.20;4.07;;;12.90;94.20;;;;;;5054372;28;20817;-69
2022/04/07 08:41:00;;;;;;;3.42;3.13;;;13.00;94.00;;;;;;5052117;28;20052;-70
2022/04/07 08:43:26;;;;;;;5.95;3.10;;;13.10;93.80;;;;;;5060081;28;20045;-70
2022/04/07 08:45:52;;;;;;;5.82;3.55;;;13.10;93.80;;;;;;5055887;28;20052;-70
2022/04/07 08:48:18;;;;;;;7.57;4.15;;;13.10;93.40;;;;;;5053925;28;20128;-70
2022/04/07 08:50:45;;;;;;;4.65;3.95;;;13.20;93.90;;;;;;5055051;28;20118;-69
2022/04/07 08:53:13;;;;;;;10.93;4.80;;;13.30;93.70;;;;;;5052522;28;20044;-70
2022/04/07 08:55:39;;;;;;;4.70;3.15;;;13.30;93.40;;;;;;5052223;28;20037;-70
2022/04/07 08:58:05;;;;;;;6.85;3.58;;;13.40;93.10;;;;;;5045768;28;20118;-69
2022/04/07 09:00:32;;;;;;;5.30;3.80;;;13.40;93.00;;;;;;5048014;28;20066;-69
2022/04/07 09:02:58;;;;;;;4.00;3.30;;;13.30;93.00;;;;;;5042654;28;20041;-69
2022/04/07 09:05:26;;;;;;;3.13;2.67;;;13.30;93.50;;;;;;5051256;28;20657;-69
2022/04/07 09:07:56;;;;;;;4.05;3.08;;;13.30;94.10;;;;;;5046791;28;20045;-70
2022/04/07 09:10:24;;;;;;;9.18;3.78;;;13.30;93.30;;;;;;5053213;28;20049;-70
2022/04/07 09:12:53;;;;;;;11.85;4.32;;;13.20;93.70;;;;;;5053537;28;20128;-70
2022/04/07 09:15:19;;;;;;;12.63;4.30;;;13.20;92.50;;;;;;5048646;28;20041;-70
2022/04/07 09:17:55;;;;;;;8.38;4.90;;;13.20;92.40;;;;;;5053581;28;20509;-69
2022/04/07 09:20:24;;;;;;;5.82;4.15;;;13.20;92.80;;;;;;5052595;28;20037;-69
2022/04/07 09:22:59;;;;;;;7.45;4.40;;;13.20;92.20;;;;;;5047754;28;20057;-70
2022/04/07 09:25:26;;;;;;;10.80;3.72;;;13.20;92.40;;;;;;5050089;28;20036;-70
2022/04/07 09:27:53;;;;;;;7.57;3.78;;;13.10;92.50;;;;;;5055679;28;20029;-70
2022/04/07 09:30:20;;;;;;;4.53;3.53;;;13.10;92.50;;;;;;5050349;28;20032;-69
2022/04/07 09:32:47;;;;;;;7.50;3.75;;;13.20;92.80;;;;;;5047356;28;20055;-70
2022/04/07 09:35:13;;;;;;;4.65;3.53;;;13.20;92.70;;;;;;5046225;28;20194;-68
2022/04/07 09:37:42;;;;;;;4.45;3.60;;;13.20;93.50;;;;;;5047292;28;20051;-68
2022/04/07 09:40:10;;;;;;;4.10;3.10;;;13.30;94.10;;;;;;5051060;28;20029;-69
2022/04/07 09:42:36;;;;;;;4.13;3.22;;;13.20;93.40;;;;;;5051807;28;20382;-69
2022/04/07 09:45:07;;;;;;;5.57;4.10;;;13.10;94.30;;;;;;5052332;28;20124;-68
2022/04/07 09:47:49;;;;;;;9.70;3.85;;;13.10;93.80;;;;;;5056969;28;20047;-68
2022/04/07 09:50:29;;;;;;;16.83;13.23;;;13.10;93.70;;;;;;5056466;28;20074;-69
2022/04/07 09:53:05;;;;;;;8.80;4.00;;;13.10;94.50;;;;;;5053220;28;20041;-68
2022/04/07 09:55:43;;;;;;;8.73;4.10;;;13.20;93.80;;;;;;5056925;28;20060;-68
2022/04/07 09:58:11;;;;;;;5.45;3.47;;;13.20;94.30;;;;;;5055890;28;20086;-69
2022/04/07 10:00:37;;;;;;;7.32;3.88;;;13.30;94.20;;;;;;5060267;28;20049;-69
2022/04/07 10:03:04;;;;;;;5.15;3.70;;;13.30;94.00;;;;;;5057510;28;20418;-68
2022/04/07 10:05:30;;;;;;;6.13;3.80;;;13.40;93.50;;;;;;5054680;28;20061;-68
2022/04/07 10:07:57;;;;;;;9.98;4.03;;;13.30;93.80;;;;;;5054391;28;20036;-69
2022/04/07 10:10:24;;;;;;;4.05;3.30;;;13.40;94.00;;;;;;5053586;28;20056;-69
2022/04/07 10:12:51;;;;;;;7.05;3.72;;;13.50;93.30;;;;;;5054769;28;20029;-69
2022/04/07 10:15:17;;;;;;;5.63;3.22;;;13.60;93.70;;;;;;5055382;28;20056;-68
2022/04/07 10:17:45;;;;;;;16.83;3.70;;;13.80;93.70;;;;;;5055077;28;20673;-69
2022/04/07 10:20:21;;;;;;;11.60;3.45;;;13.90;93.30;;;;;;5056706;28;20524;-68
2022/04/07 10:22:59;;;;;;;3.70;3.28;;;14.10;93.20;;;;;;5049536;28;20102;-69
2022/04/07 10:25:25;;;;;;;4.28;3.00;;;14.40;93.00;;;;;;5052380;28;20040;-69
2022/04/07 10:27:54;;;;;;;4.30;3.05;;;14.60;92.10;;;;;;5055627;28;20136;-68
2022/04/07 10:30:21;;;;;;;4.70;3.28;;;14.90;92.00;;;;;;5047414;28;20029;-68
2022/04/07 10:32:49;;;;;;;3.67;3.17;;;15.00;91.60;;;;;;5058253;28;20037;-68
2022/04/07 10:35:30;;;;;;;5.05;3.28;;;15.10;91.70;;;;;;5052836;28;20497;-68
2022/04/07 10:37:57;;;;;;;4.35;2.95;;;15.30;91.50;;;;;;5057618;28;20535;-68
2022/04/07 10:40:34;;;;;;;3.90;3.30;;;15.40;90.70;;;;;;5052015;28;20366;-68
2022/04/07 10:43:15;;;;;;;4.00;3.55;;;15.50;89.80;;;;;;5048581;28;20044;-68
2022/04/07 10:46:08;;;;;;;7.50;3.55;;;15.60;90.30;;;;;;5053790;28;20443;-68
2022/04/07 10:48:35;;;;;;;3.72;3.28;;;15.60;89.20;;;;;;5046643;28;20114;-68
2022/04/07 10:51:12;;;;;;;4.72;3.30;;;15.60;87.30;;;;;;5053889;28;20028;-69
2022/04/07 10:53:57;;;;;;;5.53;3.35;;;15.60;87.10;;;;;;5064187;28;20163;-68
2022/04/07 10:56:39;;;;;;;5.05;3.60;;;15.60;83.90;;;;;;5036928;28;20093;-69
2022/04/07 10:59:10;;;;;;;4.47;3.35;;;15.40;84.70;;;;;;5043065;28;20548;-69
2022/04/07 11:01:39;;;;;;;4.30;3.47;;;15.40;86.90;;;;;;5047208;28;20516;-69
2022/04/07 11:04:18;;;;;;;6.75;4.18;;;15.60;88.70;;;;;;5052965;28;20111;-69
2022/04/07 11:07:10;;;;;;;7.53;4.32;;;15.70;86.40;;;;;;5051422;28;20432;-69
2022/04/07 11:09:55;;;;;;;6.15;4.35;;;15.80;84.80;;;;;;5054910;28;20032;-69
2022/04/07 11:12:25;;;;;;;11.65;6.88;;;15.70;84.20;;;;;;5052955;28;20025;-69
2022/04/07 11:15:25;;;;;;;4.25;3.30;;;15.70;84.70;;;;;;5054289;28;20370;-68
2022/04/07 11:18:00;;;;;;;7.18;3.33;;;15.60;82.60;;;;;;5054565;28;20033;-69
2022/04/07 11:20:27;;;;;;;7.72;3.75;;;15.80;83.00;;;;;;5044555;28;20716;-68
2022/04/07 11:23:06;;;;;;;7.95;3.60;;;15.90;82.20;;;;;;5054571;28;21861;-68
2022/04/07 11:25:39;;;;;;;5.93;3.58;;;16.10;82.80;;;;;;5057499;28;20032;-68
2022/04/07 11:28:24;;;;;;;3.75;2.67;;;16.30;81.40;;;;;;5054659;28;20048;-69
2022/04/07 11:30:53;;;;;;;6.10;2.60;;;16.50;82.20;;;;;;5054449;28;20094;-69
2022/04/07 11:33:19;;;;;;;3.28;2.80;;;16.70;80.90;;;;;;5045151;28;20067;-68
2022/04/07 11:36:05;;;;;;;3.28;2.95;;;16.80;75.90;;;;;;5052381;28;20509;-69
2022/04/07 11:38:42;;;;;;;6.60;2.85;;;16.70;78.60;;;;;;5046216;28;20050;-69
2022/04/07 11:41:12;;;;;;;3.33;2.95;;;16.90;78.70;;;;;;5058173;28;20808;-68
2022/04/07 11:43:43;;;;;;;4.72;3.30;;;16.90;78.20;;;;;;5051874;28;20083;-69
2022/04/07 11:46:09;;;;;;;3.63;3.33;;;16.90;77.00;;;;;;5047849;28;20045;-69
2022/04/07 11:48:36;;;;;;;5.18;3.53;;;17.00;78.30;;;;;;5043681;28;20063;-69
2022/04/07 11:51:11;;;;;;;6.97;3.40;;;17.10;77.40;;;;;;5050241;28;20063;-69
2022/04/07 11:53:41;;;;;;;4.63;3.20;;;17.20;76.10;;;;;;5046715;28;20048;-69
2022/04/07 11:56:19;;;;;;;5.53;3.28;;;17.30;78.50;;;;;;5056173;28;20534;-69
2022/04/07 11:59:10;;;;;;;5.65;3.17;;;17.50;76.10;;;;;;5048210;28;20759;-69
2022/04/07 12:01:40;;;;;;;4.07;3.00;;;17.50;75.30;;;;;;5049632;28;20055;-69
2022/04/07 12:04:09;;;;;;;2.97;2.65;;;17.60;76.70;;;;;;5058316;28;20041;-69
2022/04/07 12:06:36;;;;;;;3.72;3.10;;;17.60;73.10;;;;;;5046418;28;20045;-69
2022/04/07 12:09:04;;;;;;;5.53;3.40;;;17.60;73.20;;;;;;5054498;28;20425;-68
2022/04/07 12:11:32;;;;;;;6.00;3.15;;;17.60;71.60;;;;;;5061666;28;20125;-69
2022/04/07 12:13:58;;;;;;;3.13;2.80;;;17.50;70.80;;;;;;5052562;28;20040;-69
2022/04/07 12:16:25;;;;;;;4.80;3.38;;;17.40;72.90;;;;;;5054541;28;20033;-68
2022/04/07 12:18:59;;;;;;;4.55;3.42;;;17.40;72.30;;;;;;5057629;28;20049;-68
2022/04/07 12:21:27;;;;;;;3.92;3.20;;;17.60;72.00;;;;;;5064762;28;20043;-68
2022/04/07 12:24:13;;;;;;;3.40;2.95;;;17.80;73.90;;;;;;5053009;28;20036;-68
2022/04/07 12:26:43;;;;;;;3.20;2.83;;;17.90;71.00;;;;;;5056333;28;20056;-69
2022/04/07 12:29:34;;;;;;;8.93;2.85;;;18.00;71.20;;;;;;5057727;28;20588;-70
2022/04/07 12:32:09;;;;;;;3.95;2.72;;;18.10;69.80;;;;;;5054937;28;20032;-69
2022/04/07 12:34:53;;;;;;;6.07;2.75;;;18.00;69.40;;;;;;5037152;28;20051;-69
2022/04/07 12:37:39;;;;;;;4.88;2.70;;;18.10;69.10;;;;;;5058037;28;20790;-69
2022/04/07 12:40:27;;;;;;;5.38;3.15;;;18.10;70.50;;;;;;5062149;28;20052;-69
2022/04/07 12:42:55;;;;;;;3.85;2.75;;;18.20;67.80;;;;;;5054782;28;20048;-69
2022/04/07 12:45:21;;;;;;;4.90;2.70;;;18.20;67.70;;;;;;5049717;28;20523;-69
2022/04/07 12:48:07;;;;;;;3.17;2.72;;;18.10;67.00;;;;;;5051662;28;20421;-69
2022/04/07 12:50:34;;;;;;;2.63;2.40;;;18.10;66.60;;;;;;5054033;28;20141;-69
2022/04/07 12:53:00;;;;;;;3.97;3.25;;;18.10;66.80;;;;;;5050037;28;20036;-69
2022/04/07 12:55:35;;;;;;;4.82;3.80;;;18.20;63.70;;;;;;5052653;28;20040;-69
2022/04/07 12:58:01;;;;;;;5.38;2.67;;;18.10;65.30;;;;;;5055333;28;20060;-69